Česky Dansk Deutsch English Español Suomi Français Magyar Italiano Nederlands norsk Polski Português svenska Türkçe

 

Het Weer

Taiz (Yemen)

23:00, 20 maart 2015 (GMT)

NWNNE
WE
SWSSE
Home            
Taiz Mokha Mokha Aden Assab Hodeidah Sana'A Marib Djibouti \ Ambouli Djibouti Al-Hazm Ataq Sa'Ada / Sadah Berbera Gizan Najran Hargeisa Burao Makale Jiggiga Dire Dawa Sharurah Abha

Om een weerknop op uw website of weblog te plaatsen, copieer onderstaande code en plak die in uw pagina. In het eerste vakje staat HTML-code, in het tweede vakje UBB-code.


Add to Google

Details

Wind speed:2 bf, 5 kn, 2.6 m/s, 5.8 miles/h, 9.3 km/h
Wind direction:N, 360°
Visibility:Greater than 10000 m, 10 km, 32800 ft, 6.2 miles
Clouds:CAVOC
Temperature:17°C, 63°F
Dew-point:11°C, 52°F
Atmospheric pressure:1017 hPa, 762.8 mmHg, 30.03 inHg, 1.004 atm
Relative humidity:67.7 %
METAR:OYTZ 202300Z 36005KT CAVOK 17/11 Q1017

Snelkoppelingen

Actuele weersinformatie van de hele wereld. Voeg locaties toe met het plus (+) symbool. Deze snelkoppelingen kunnen worden toegevoegd aan Google.

Lid van de Technetium groep

website free tracking
StatCounter NetStat W3C Validator

14-04-2021 10:53:38
astro.technetium.be money.technetium.be phote.technetium.be tafeltennistafel.technetium.be www.ligfiets.net